EST,Max TemperatureF,Mean TemperatureF,Min TemperatureF,Max Dew PointF,MeanDew PointF,Min DewpointF,Max Humidity, Mean Humidity, Min Humidity, Max Sea Level PressureIn, Mean Sea Level PressureIn, Min Sea Level PressureIn, Max VisibilityMiles, Mean VisibilityMiles, Min VisibilityMiles, Max Wind SpeedMPH, Mean Wind SpeedMPH, Max Gust SpeedMPH,PrecipitationIn, CloudCover, Events, WindDirDegrees
2012-11-1,53,48,42,45,40,37,93,80,54,29.55,29.51,29.47,10,10,9,9,5,,0.00,6,,177
2012-11-2,51,44,37,41,37,34,93,74,54,29.57,29.52,29.49,10,10,9,8,2,,0.00,7,,315
2012-11-3,48,42,37,36,33,30,93,66,53,29.72,29.65,29.57,10,10,10,15,5,22,0.00,5,,310
2012-11-4,48,42,35,32,29,21,75,60,46,29.93,29.82,29.72,10,10,10,16,10,26,0.00,4,,325
2012-11-5,37,30,24,25,18,12,80,56,36,30.08,30.00,29.92,10,10,10,18,6,25,0.00,6,,347
2012-11-6,37,28,19,19,16,10,93,63,33,30.25,30.18,30.08,10,10,10,13,2,16,0.00,0,,332
2012-11-7,35,27,19,27,17,12,93,61,38,30.25,30.10,29.92,10,10,2,21,9,26,0.00,2,,22
2012-11-8,37,34,30,34,32,27,93,88,81,29.92,29.78,29.72,10,7,2,23,17,31,0.00,8,,6
2012-11-9,48,39,30,32,27,19,93,62,37,30.03,29.89,29.74,10,10,10,20,10,26,0.00,3,,326
2012-11-10,37,32,26,28,26,23,93,82,65,30.12,30.07,30.02,10,10,10,6,1,,0.00,0,,301
2012-11-11,,,,,,,,,,,,,,,,,,,,,,
2012-11-12,57,56,55,54,53,52,88,88,88,30.24,30.23,30.22,10,10,10,10,9,,0.00,6,,178
2012-11-13,60,46,33,57,42,23,94,78,60,30.43,30.22,30.07,10,10,5,14,9,21,0.00,6,,315
2012-11-14,42,35,28,25,22,19,86,63,42,30.56,30.51,30.43,10,10,10,14,5,17,0.00,0,,6
2012-11-15,41,34,26,27,24,19,93,72,53,30.51,30.41,30.32,10,10,10,14,4,18,0.00,0,,12
2012-11-16,42,33,24,28,25,21,93,77,45,30.42,30.32,30.28,10,10,10,6,1,,0.00,0,,335
2012-11-17,46,35,24,28,22,16,86,65,29,30.67,30.57,30.42,10,10,10,16,3,16,0.00,0,,4
2012-11-18,42,30,19,21,16,7,93,64,23,30.76,30.69,30.65,10,10,10,6,1,,0.00,0,,31
2012-11-19,46,32,19,23,19,16,93,69,34,30.63,30.46,30.27,10,10,10,6,1,,0.00,0,,29
2012-11-20,48,34,19,27,22,18,93,70,37,30.26,30.19,30.15,10,10,10,9,1,,0.00,0,,14
2012-11-21,46,37,28,34,28,25,100,78,57,30.28,30.25,30.19,10,9,2,13,2,,0.00,1,,21
2012-11-22,51,37,23,37,31,21,100,84,47,30.26,30.20,30.10,10,6,0,10,2,,0.00,1,,185
2012-11-23,53,40,28,43,36,27,100,88,58,30.09,29.87,29.62,10,6,0,16,4,21,0.00,6,,174
2012-11-24,44,37,30,41,29,12,100,69,44,29.61,29.50,29.43,10,8,0,15,5,28,0.00,6,,296
2012-11-25,35,29,23,18,10,7,60,44,32,29.76,29.63,29.51,10,10,10,18,10,26,0.00,2,,285
2012-11-26,39,26,14,23,14,7,86,61,40,30.22,29.96,29.77,10,10,10,16,2,20,0.00,1,,307
2012-11-27,33,24,15,19,15,9,93,72,51,30.31,30.27,30.22,10,10,10,5,0,,0.00,3,,135
2012-11-28,30,22,15,19,18,12,93,73,55,30.25,30.16,30.07,10,10,10,12,5,,0.00,6,,15
2012-11-29,39,26,12,27,15,9,93,61,33,30.17,30.09,30.02,10,10,3,17,5,26,0.00,4,,274
2012-11-30,28,20,12,16,3,-2,67,46,29,30.56,30.43,30.19,10,10,10,17,9,25,0.00,1,,349